sensor_id;sensor_type;location;lat;lon;timestamp;pressure;altitude;pressure_sealevel;temperature;humidity
12360;BME280;6244;51.460;7.090;2023-04-30T00:01:57;101329.88;;;9.61;68.01
12360;BME280;6244;51.460;7.090;2023-04-30T00:06:54;101330.06;;;9.56;68.12
12360;BME280;6244;51.460;7.090;2023-04-30T00:11:50;101337.91;;;9.56;68.03
12360;BME280;6244;51.460;7.090;2023-04-30T00:16:48;101333.47;;;9.58;68.06
12360;BME280;6244;51.460;7.090;2023-04-30T00:21:45;101332.69;;;9.55;67.78
12360;BME280;6244;51.460;7.090;2023-04-30T00:26:41;101331.22;;;9.48;68.18
12360;BME280;6244;51.460;7.090;2023-04-30T00:31:38;101353.09;;;9.47;68.17
12360;BME280;6244;51.460;7.090;2023-04-30T00:36:37;101345.34;;;9.44;68.05
12360;BME280;6244;51.460;7.090;2023-04-30T00:41:34;101347.00;;;9.46;67.90
12360;BME280;6244;51.460;7.090;2023-04-30T00:46:30;101347.00;;;9.46;67.33
12360;BME280;6244;51.460;7.090;2023-04-30T00:51:28;101350.59;;;9.44;66.98
12360;BME280;6244;51.460;7.090;2023-04-30T00:56:27;101351.81;;;9.33;67.09
12360;BME280;6244;51.460;7.090;2023-04-30T01:01:24;101348.97;;;9.39;67.24
12360;BME280;6244;51.460;7.090;2023-04-30T01:06:22;101343.19;;;9.30;67.42
12360;BME280;6244;51.460;7.090;2023-04-30T01:11:27;101346.72;;;9.29;67.38
12360;BME280;6244;51.460;7.090;2023-04-30T01:16:28;101338.91;;;9.27;67.36
12360;BME280;6244;51.460;7.090;2023-04-30T01:21:27;101331.44;;;9.17;67.51
12360;BME280;6244;51.460;7.090;2023-04-30T01:26:46;101333.13;;;9.18;66.96
12360;BME280;6244;51.460;7.090;2023-04-30T01:31:45;101334.22;;;9.12;67.53
12360;BME280;6244;51.460;7.090;2023-04-30T01:36:52;101341.28;;;9.10;67.42
12360;BME280;6244;51.460;7.090;2023-04-30T01:42:04;101333.44;;;9.10;67.39
12360;BME280;6244;51.460;7.090;2023-04-30T01:47:08;101343.22;;;9.03;67.02
12360;BME280;6244;51.460;7.090;2023-04-30T01:52:07;101330.38;;;8.97;67.23
12360;BME280;6244;51.460;7.090;2023-04-30T01:57:06;101345.75;;;8.80;67.75
12360;BME280;6244;51.460;7.090;2023-04-30T02:02:05;101341.44;;;8.79;68.22
12360;BME280;6244;51.460;7.090;2023-04-30T02:07:02;101348.34;;;8.81;67.92
12360;BME280;6244;51.460;7.090;2023-04-30T02:11:58;101342.28;;;8.79;67.81
12360;BME280;6244;51.460;7.090;2023-04-30T02:16:55;101348.59;;;8.74;67.40
12360;BME280;6244;51.460;7.090;2023-04-30T02:21:53;101354.88;;;8.68;67.42
12360;BME280;6244;51.460;7.090;2023-04-30T02:26:49;101355.75;;;8.67;67.32
12360;BME280;6244;51.460;7.090;2023-04-30T02:31:46;101355.13;;;8.61;67.24
12360;BME280;6244;51.460;7.090;2023-04-30T02:36:42;101352.50;;;8.61;67.14
12360;BME280;6244;51.460;7.090;2023-04-30T02:41:40;101354.38;;;8.57;67.46
12360;BME280;6244;51.460;7.090;2023-04-30T02:46:36;101355.22;;;8.58;66.95
12360;BME280;6244;51.460;7.090;2023-04-30T02:51:33;101358.97;;;8.49;67.34
12360;BME280;6244;51.460;7.090;2023-04-30T02:56:29;101359.88;;;8.48;67.79
12360;BME280;6244;51.460;7.090;2023-04-30T03:01:27;101353.00;;;8.45;67.55
12360;BME280;6244;51.460;7.090;2023-04-30T03:06:24;101351.28;;;8.43;67.92
12360;BME280;6244;51.460;7.090;2023-04-30T03:11:20;101349.00;;;8.32;67.65
12360;BME280;6244;51.460;7.090;2023-04-30T03:16:17;101345.66;;;8.27;68.17
12360;BME280;6244;51.460;7.090;2023-04-30T03:21:15;101338.00;;;8.21;68.84
12360;BME280;6244;51.460;7.090;2023-04-30T03:26:12;101343.09;;;8.25;68.99
12360;BME280;6244;51.460;7.090;2023-04-30T03:31:09;101343.78;;;8.31;69.08
12360;BME280;6244;51.460;7.090;2023-04-30T03:36:06;101344.84;;;8.25;69.00
12360;BME280;6244;51.460;7.090;2023-04-30T03:41:04;101340.47;;;8.25;68.97
12360;BME280;6244;51.460;7.090;2023-04-30T03:46:00;101348.53;;;8.19;69.08
12360;BME280;6244;51.460;7.090;2023-04-30T03:50:57;101343.28;;;8.19;68.91
12360;BME280;6244;51.460;7.090;2023-04-30T03:55:54;101352.06;;;8.17;68.58
12360;BME280;6244;51.460;7.090;2023-04-30T04:00:52;101357.38;;;8.14;68.05
12360;BME280;6244;51.460;7.090;2023-04-30T04:05:49;101358.44;;;8.08;68.77
12360;BME280;6244;51.460;7.090;2023-04-30T04:10:45;101368.09;;;8.06;68.71
12360;BME280;6244;51.460;7.090;2023-04-30T04:15:42;101356.94;;;8.00;68.58
12360;BME280;6244;51.460;7.090;2023-04-30T04:20:40;101364.84;;;7.98;68.41
12360;BME280;6244;51.460;7.090;2023-04-30T04:25:36;101357.59;;;7.77;69.38
12360;BME280;6244;51.460;7.090;2023-04-30T04:30:33;101350.56;;;7.48;71.48
12360;BME280;6244;51.460;7.090;2023-04-30T04:35:30;101360.34;;;7.72;71.31
12360;BME280;6244;51.460;7.090;2023-04-30T04:40:28;101358.69;;;7.70;71.05
12360;BME280;6244;51.460;7.090;2023-04-30T04:45:25;101364.41;;;7.82;71.42
12360;BME280;6244;51.460;7.090;2023-04-30T04:50:21;101366.69;;;7.94;71.70
12360;BME280;6244;51.460;7.090;2023-04-30T04:55:18;101373.53;;;7.99;71.63
12360;BME280;6244;51.460;7.090;2023-04-30T05:00:16;101381.16;;;8.06;72.04
12360;BME280;6244;51.460;7.090;2023-04-30T05:05:13;101373.38;;;8.03;72.15
12360;BME280;6244;51.460;7.090;2023-04-30T05:10:10;101373.47;;;8.00;72.27
12360;BME280;6244;51.460;7.090;2023-04-30T05:15:07;101376.91;;;8.02;72.95
12360;BME280;6244;51.460;7.090;2023-04-30T05:20:06;101377.84;;;8.00;73.23
12360;BME280;6244;51.460;7.090;2023-04-30T05:25:04;101375.38;;;7.95;74.13
12360;BME280;6244;51.460;7.090;2023-04-30T05:30:01;101378.09;;;7.90;74.97
12360;BME280;6244;51.460;7.090;2023-04-30T05:34:57;101385.94;;;7.90;75.33
12360;BME280;6244;51.460;7.090;2023-04-30T05:39:55;101393.06;;;7.85;76.44
12360;BME280;6244;51.460;7.090;2023-04-30T05:44:52;101395.78;;;7.82;76.91
12360;BME280;6244;51.460;7.090;2023-04-30T05:49:48;101399.75;;;7.95;77.53
12360;BME280;6244;51.460;7.090;2023-04-30T05:54:45;101399.28;;;7.81;78.42
12360;BME280;6244;51.460;7.090;2023-04-30T05:59:43;101398.50;;;7.78;79.11
12360;BME280;6244;51.460;7.090;2023-04-30T06:04:40;101398.50;;;7.78;79.23
12360;BME280;6244;51.460;7.090;2023-04-30T06:09:36;101400.56;;;7.98;79.54
12360;BME280;6244;51.460;7.090;2023-04-30T06:14:34;101401.03;;;8.12;79.18
12360;BME280;6244;51.460;7.090;2023-04-30T06:19:32;101399.25;;;8.12;79.51
12360;BME280;6244;51.460;7.090;2023-04-30T06:24:28;101401.47;;;8.26;79.48
12360;BME280;6244;51.460;7.090;2023-04-30T06:29:25;101402.75;;;8.42;78.41
12360;BME280;6244;51.460;7.090;2023-04-30T06:34:21;101411.19;;;8.52;78.53
12360;BME280;6244;51.460;7.090;2023-04-30T06:39:19;101403.09;;;8.60;78.68
12360;BME280;6244;51.460;7.090;2023-04-30T06:44:16;101398.00;;;8.55;78.45
12360;BME280;6244;51.460;7.090;2023-04-30T06:49:13;101398.63;;;8.63;78.36
12360;BME280;6244;51.460;7.090;2023-04-30T06:54:09;101400.97;;;8.72;78.36
12360;BME280;6244;51.460;7.090;2023-04-30T06:59:07;101402.41;;;8.82;78.20
12360;BME280;6244;51.460;7.090;2023-04-30T07:04:04;101399.97;;;9.03;77.99
12360;BME280;6244;51.460;7.090;2023-04-30T07:09:01;101388.00;;;9.22;77.15
12360;BME280;6244;51.460;7.090;2023-04-30T07:13:57;101388.31;;;9.38;77.88
12360;BME280;6244;51.460;7.090;2023-04-30T07:18:55;101390.41;;;9.53;77.37
12360;BME280;6244;51.460;7.090;2023-04-30T07:23:53;101390.69;;;9.70;76.27
12360;BME280;6244;51.460;7.090;2023-04-30T07:28:50;101383.34;;;9.80;75.62
12360;BME280;6244;51.460;7.090;2023-04-30T07:33:46;101389.78;;;9.95;75.15
12360;BME280;6244;51.460;7.090;2023-04-30T07:38:46;101377.31;;;10.25;74.12
12360;BME280;6244;51.460;7.090;2023-04-30T07:43:42;101387.38;;;10.59;72.60
12360;BME280;6244;51.460;7.090;2023-04-30T07:48:44;101381.22;;;10.82;71.85
12360;BME280;6244;51.460;7.090;2023-04-30T07:53:40;101380.22;;;10.84;71.32
12360;BME280;6244;51.460;7.090;2023-04-30T07:58:38;101385.66;;;11.22;70.20
12360;BME280;6244;51.460;7.090;2023-04-30T08:03:35;101390.31;;;11.76;69.65
12360;BME280;6244;51.460;7.090;2023-04-30T08:08:32;101391.19;;;12.35;66.30
12360;BME280;6244;51.460;7.090;2023-04-30T08:13:28;101392.84;;;12.74;65.18
12360;BME280;6244;51.460;7.090;2023-04-30T08:18:27;101386.38;;;14.33;59.87
12360;BME280;6244;51.460;7.090;2023-04-30T08:23:23;101379.03;;;15.90;52.96
12360;BME280;6244;51.460;7.090;2023-04-30T08:28:20;101383.16;;;16.64;51.37
12360;BME280;6244;51.460;7.090;2023-04-30T08:33:16;101379.59;;;17.57;49.02
12360;BME280;6244;51.460;7.090;2023-04-30T08:38:14;101376.75;;;18.35;45.79
12360;BME280;6244;51.460;7.090;2023-04-30T08:43:13;101370.09;;;18.66;42.31
12360;BME280;6244;51.460;7.090;2023-04-30T08:48:10;101373.41;;;19.04;43.90
12360;BME280;6244;51.460;7.090;2023-04-30T08:53:10;101370.78;;;18.81;45.06
12360;BME280;6244;51.460;7.090;2023-04-30T08:58:10;101366.91;;;19.08;43.93
12360;BME280;6244;51.460;7.090;2023-04-30T09:03:07;101366.97;;;20.00;42.01
12360;BME280;6244;51.460;7.090;2023-04-30T09:08:05;101364.78;;;19.60;42.99
12360;BME280;6244;51.460;7.090;2023-04-30T09:13:04;101366.47;;;19.83;43.04
12360;BME280;6244;51.460;7.090;2023-04-30T09:18:10;101359.88;;;19.54;42.30
12360;BME280;6244;51.460;7.090;2023-04-30T09:23:09;101355.09;;;19.70;41.67
12360;BME280;6244;51.460;7.090;2023-04-30T09:28:07;101350.19;;;19.53;44.04
12360;BME280;6244;51.460;7.090;2023-04-30T09:33:04;101348.91;;;20.26;42.03
12360;BME280;6244;51.460;7.090;2023-04-30T09:38:02;101345.28;;;20.04;42.83
12360;BME280;6244;51.460;7.090;2023-04-30T09:42:59;101335.72;;;20.13;40.84
12360;BME280;6244;51.460;7.090;2023-04-30T09:47:59;101343.69;;;20.24;41.93
12360;BME280;6244;51.460;7.090;2023-04-30T09:53:05;101336.47;;;20.58;40.41
12360;BME280;6244;51.460;7.090;2023-04-30T09:58:04;101325.63;;;20.28;41.28
12360;BME280;6244;51.460;7.090;2023-04-30T10:03:06;101317.19;;;20.00;42.69
12360;BME280;6244;51.460;7.090;2023-04-30T10:08:06;101323.91;;;20.81;40.42
12360;BME280;6244;51.460;7.090;2023-04-30T10:13:09;101319.19;;;20.85;40.84
12360;BME280;6244;51.460;7.090;2023-04-30T10:18:18;101314.69;;;20.85;39.41
12360;BME280;6244;51.460;7.090;2023-04-30T10:23:18;101307.59;;;21.67;38.93
12360;BME280;6244;51.460;7.090;2023-04-30T10:28:16;101306.69;;;21.78;39.02
12360;BME280;6244;51.460;7.090;2023-04-30T10:33:19;101301.00;;;20.78;38.94
12360;BME280;6244;51.460;7.090;2023-04-30T10:38:22;101298.69;;;20.85;38.46
12360;BME280;6244;51.460;7.090;2023-04-30T10:43:19;101295.75;;;20.88;39.49
12360;BME280;6244;51.460;7.090;2023-04-30T10:48:16;101293.09;;;20.88;38.73
12360;BME280;6244;51.460;7.090;2023-04-30T10:53:21;101271.56;;;21.52;38.72
12360;BME280;6244;51.460;7.090;2023-04-30T10:58:24;101266.19;;;21.83;37.18
12360;BME280;6244;51.460;7.090;2023-04-30T11:03:21;101271.94;;;21.78;36.65
12360;BME280;6244;51.460;7.090;2023-04-30T11:08:31;101260.97;;;21.81;35.72
12360;BME280;6244;51.460;7.090;2023-04-30T11:13:28;101260.84;;;21.83;35.32
12360;BME280;6244;51.460;7.090;2023-04-30T11:18:33;101246.59;;;21.63;37.07
12360;BME280;6244;51.460;7.090;2023-04-30T11:23:39;101250.03;;;21.84;36.04
12360;BME280;6244;51.460;7.090;2023-04-30T11:28:37;101239.97;;;22.94;36.04
12360;BME280;6244;51.460;7.090;2023-04-30T11:33:33;101241.63;;;21.98;35.46
12360;BME280;6244;51.460;7.090;2023-04-30T11:38:34;101233.91;;;21.95;34.76
12360;BME280;6244;51.460;7.090;2023-04-30T11:43:33;101224.66;;;22.38;34.68
12360;BME280;6244;51.460;7.090;2023-04-30T11:48:30;101220.69;;;22.81;34.28
12360;BME280;6244;51.460;7.090;2023-04-30T11:53:27;101229.84;;;23.44;28.66
12360;BME280;6244;51.460;7.090;2023-04-30T11:58:25;101227.19;;;22.98;32.84
12360;BME280;6244;51.460;7.090;2023-04-30T12:03:24;101235.22;;;22.11;34.31
12360;BME280;6244;51.460;7.090;2023-04-30T12:08:21;101219.00;;;21.22;37.51
12360;BME280;6244;51.460;7.090;2023-04-30T12:13:18;101219.19;;;20.15;39.25
12360;BME280;6244;51.460;7.090;2023-04-30T12:18:14;101220.50;;;19.55;38.76
12360;BME280;6244;51.460;7.090;2023-04-30T12:23:12;101211.09;;;19.62;41.68
12360;BME280;6244;51.460;7.090;2023-04-30T12:28:09;101204.75;;;19.29;43.28
12360;BME280;6244;51.460;7.090;2023-04-30T12:33:09;101197.72;;;18.95;43.07
12360;BME280;6244;51.460;7.090;2023-04-30T12:38:06;101194.00;;;19.08;43.17
12360;BME280;6244;51.460;7.090;2023-04-30T12:43:06;101192.53;;;19.04;40.99
12360;BME280;6244;51.460;7.090;2023-04-30T12:48:03;101191.69;;;18.93;43.86
12360;BME280;6244;51.460;7.090;2023-04-30T12:53:01;101197.63;;;19.41;38.90
12360;BME280;6244;51.460;7.090;2023-04-30T12:58:09;101198.59;;;19.06;42.01
12360;BME280;6244;51.460;7.090;2023-04-30T13:03:06;101184.22;;;18.98;42.73
12360;BME280;6244;51.460;7.090;2023-04-30T13:08:03;101184.66;;;18.81;42.52
12360;BME280;6244;51.460;7.090;2023-04-30T13:13:00;101172.75;;;18.27;41.91
12360;BME280;6244;51.460;7.090;2023-04-30T13:17:58;101162.94;;;18.16;42.71
12360;BME280;6244;51.460;7.090;2023-04-30T13:22:55;101166.03;;;18.10;44.45
12360;BME280;6244;51.460;7.090;2023-04-30T13:27:51;101163.00;;;18.04;43.77
12360;BME280;6244;51.460;7.090;2023-04-30T13:32:48;101152.09;;;17.72;43.25
12360;BME280;6244;51.460;7.090;2023-04-30T13:37:46;101150.69;;;18.03;43.44
12360;BME280;6244;51.460;7.090;2023-04-30T13:42:44;101145.00;;;18.31;42.75
12360;BME280;6244;51.460;7.090;2023-04-30T13:47:41;101143.72;;;18.48;42.59
12360;BME280;6244;51.460;7.090;2023-04-30T13:52:38;101137.50;;;18.71;41.56
12360;BME280;6244;51.460;7.090;2023-04-30T13:57:36;101136.91;;;18.33;44.04
12360;BME280;6244;51.460;7.090;2023-04-30T14:02:34;101130.38;;;18.26;42.00
12360;BME280;6244;51.460;7.090;2023-04-30T14:07:30;101123.41;;;18.47;41.89
12360;BME280;6244;51.460;7.090;2023-04-30T14:12:27;101123.25;;;19.06;39.98
12360;BME280;6244;51.460;7.090;2023-04-30T14:17:26;101120.91;;;18.57;43.10
12360;BME280;6244;51.460;7.090;2023-04-30T14:22:23;101109.22;;;18.13;41.61
12360;BME280;6244;51.460;7.090;2023-04-30T14:27:20;101097.81;;;18.00;41.93
12360;BME280;6244;51.460;7.090;2023-04-30T14:32:16;101108.94;;;17.81;42.48
12360;BME280;6244;51.460;7.090;2023-04-30T14:37:14;101096.63;;;18.04;42.13
12360;BME280;6244;51.460;7.090;2023-04-30T14:42:11;101097.47;;;18.04;41.18
12360;BME280;6244;51.460;7.090;2023-04-30T14:47:08;101089.09;;;17.98;41.49
12360;BME280;6244;51.460;7.090;2023-04-30T14:52:04;101080.00;;;17.65;42.37
12360;BME280;6244;51.460;7.090;2023-04-30T14:57:02;101080.56;;;17.57;45.51
12360;BME280;6244;51.460;7.090;2023-04-30T15:01:59;101077.13;;;17.44;43.46
12360;BME280;6244;51.460;7.090;2023-04-30T15:06:56;101067.34;;;17.45;42.73
12360;BME280;6244;51.460;7.090;2023-04-30T15:11:52;101056.19;;;17.52;43.04
12360;BME280;6244;51.460;7.090;2023-04-30T15:16:50;101051.84;;;17.27;43.42
12360;BME280;6244;51.460;7.090;2023-04-30T15:21:47;101053.00;;;17.47;42.72
12360;BME280;6244;51.460;7.090;2023-04-30T15:26:43;101047.88;;;17.57;42.15
12360;BME280;6244;51.460;7.090;2023-04-30T15:31:40;101037.09;;;17.47;43.38
12360;BME280;6244;51.460;7.090;2023-04-30T15:36:38;101033.09;;;17.42;43.50
12360;BME280;6244;51.460;7.090;2023-04-30T15:41:34;101035.44;;;17.33;43.98
12360;BME280;6244;51.460;7.090;2023-04-30T15:46:31;101024.16;;;17.19;44.11
12360;BME280;6244;51.460;7.090;2023-04-30T15:51:28;101028.25;;;16.99;45.57
12360;BME280;6244;51.460;7.090;2023-04-30T15:56:25;101028.84;;;16.79;44.79
12360;BME280;6244;51.460;7.090;2023-04-30T16:01:22;101019.84;;;16.68;45.02
12360;BME280;6244;51.460;7.090;2023-04-30T16:06:18;101019.31;;;16.63;45.52
12360;BME280;6244;51.460;7.090;2023-04-30T16:11:15;101016.84;;;16.73;46.23
12360;BME280;6244;51.460;7.090;2023-04-30T16:16:13;101008.59;;;16.52;45.01
12360;BME280;6244;51.460;7.090;2023-04-30T16:21:10;101017.81;;;16.59;43.71
12360;BME280;6244;51.460;7.090;2023-04-30T16:26:07;101004.38;;;16.62;45.59
12360;BME280;6244;51.460;7.090;2023-04-30T16:31:03;100999.81;;;16.39;45.89
12360;BME280;6244;51.460;7.090;2023-04-30T16:36:01;101001.41;;;16.41;47.49
12360;BME280;6244;51.460;7.090;2023-04-30T16:40:58;100999.41;;;16.32;46.27
12360;BME280;6244;51.460;7.090;2023-04-30T16:45:55;100987.13;;;16.19;46.00
12360;BME280;6244;51.460;7.090;2023-04-30T16:50:52;100988.41;;;16.00;46.01
12360;BME280;6244;51.460;7.090;2023-04-30T16:55:49;100988.91;;;15.93;46.67
12360;BME280;6244;51.460;7.090;2023-04-30T17:00:47;100992.50;;;15.92;47.85
12360;BME280;6244;51.460;7.090;2023-04-30T17:05:44;100987.41;;;15.76;46.92
12360;BME280;6244;51.460;7.090;2023-04-30T17:10:40;100976.63;;;15.52;47.02
12360;BME280;6244;51.460;7.090;2023-04-30T17:15:38;100971.97;;;15.55;48.07
12360;BME280;6244;51.460;7.090;2023-04-30T17:20:35;100973.16;;;15.51;49.15
12360;BME280;6244;51.460;7.090;2023-04-30T17:25:31;100965.72;;;15.44;47.65
12360;BME280;6244;51.460;7.090;2023-04-30T17:30:28;100965.56;;;15.33;48.36
12360;BME280;6244;51.460;7.090;2023-04-30T17:35:26;100965.31;;;15.23;48.13
12360;BME280;6244;51.460;7.090;2023-04-30T17:40:22;100958.66;;;15.17;49.00
12360;BME280;6244;51.460;7.090;2023-04-30T17:45:19;100957.66;;;15.06;47.66
12360;BME280;6244;51.460;7.090;2023-04-30T17:50:15;100959.38;;;14.92;48.72
12360;BME280;6244;51.460;7.090;2023-04-30T17:55:13;100960.06;;;14.82;49.99
12360;BME280;6244;51.460;7.090;2023-04-30T18:00:11;100954.03;;;14.80;49.25
12360;BME280;6244;51.460;7.090;2023-04-30T18:05:08;100951.53;;;14.64;49.03
12360;BME280;6244;51.460;7.090;2023-04-30T18:10:07;100955.28;;;14.60;49.02
12360;BME280;6244;51.460;7.090;2023-04-30T18:15:05;100951.38;;;14.53;49.75
12360;BME280;6244;51.460;7.090;2023-04-30T18:20:06;100949.34;;;14.42;50.82
12360;BME280;6244;51.460;7.090;2023-04-30T18:25:04;100951.63;;;14.34;50.18
12360;BME280;6244;51.460;7.090;2023-04-30T18:30:01;100959.91;;;14.14;50.84
12360;BME280;6244;51.460;7.090;2023-04-30T18:35:00;100954.25;;;14.05;51.45
12360;BME280;6244;51.460;7.090;2023-04-30T18:39:57;100961.03;;;13.95;51.61
12360;BME280;6244;51.460;7.090;2023-04-30T18:44:54;100957.91;;;13.89;52.03
12360;BME280;6244;51.460;7.090;2023-04-30T18:49:51;100952.44;;;13.77;51.88
12360;BME280;6244;51.460;7.090;2023-04-30T18:54:51;100957.03;;;13.88;52.38
12360;BME280;6244;51.460;7.090;2023-04-30T18:59:48;100960.28;;;14.07;52.17
12360;BME280;6244;51.460;7.090;2023-04-30T19:04:44;100955.00;;;14.36;50.87
12360;BME280;6244;51.460;7.090;2023-04-30T19:09:43;100956.69;;;14.23;50.97
12360;BME280;6244;51.460;7.090;2023-04-30T19:14:46;100950.19;;;14.00;51.63
12360;BME280;6244;51.460;7.090;2023-04-30T19:19:46;100962.19;;;14.05;51.28
12360;BME280;6244;51.460;7.090;2023-04-30T19:24:52;100960.38;;;14.06;51.28
12360;BME280;6244;51.460;7.090;2023-04-30T19:29:51;100967.25;;;14.08;50.82
12360;BME280;6244;51.460;7.090;2023-04-30T19:34:52;100970.84;;;14.07;51.30
12360;BME280;6244;51.460;7.090;2023-04-30T19:39:58;100961.56;;;13.86;51.66
12360;BME280;6244;51.460;7.090;2023-04-30T19:45:04;100958.94;;;13.86;51.50
12360;BME280;6244;51.460;7.090;2023-04-30T19:50:07;100963.75;;;13.94;51.71
12360;BME280;6244;51.460;7.090;2023-04-30T19:55:04;100966.22;;;13.97;51.57
12360;BME280;6244;51.460;7.090;2023-04-30T20:00:03;100968.28;;;14.06;51.50
12360;BME280;6244;51.460;7.090;2023-04-30T20:05:00;100966.97;;;13.99;51.91
12360;BME280;6244;51.460;7.090;2023-04-30T20:09:58;100971.69;;;14.08;51.72
12360;BME280;6244;51.460;7.090;2023-04-30T20:14:54;100963.97;;;14.05;51.47
12360;BME280;6244;51.460;7.090;2023-04-30T20:19:53;100959.34;;;13.94;51.82
12360;BME280;6244;51.460;7.090;2023-04-30T20:25:01;100968.09;;;13.95;51.94
12360;BME280;6244;51.460;7.090;2023-04-30T20:29:59;100959.50;;;13.77;52.55
12360;BME280;6244;51.460;7.090;2023-04-30T20:35:00;100966.59;;;13.61;52.83
12360;BME280;6244;51.460;7.090;2023-04-30T20:39:59;100958.69;;;13.61;52.75
12360;BME280;6244;51.460;7.090;2023-04-30T20:44:57;100957.84;;;13.60;52.89
12360;BME280;6244;51.460;7.090;2023-04-30T20:49:54;100947.06;;;13.49;53.25
12360;BME280;6244;51.460;7.090;2023-04-30T20:54:54;100953.47;;;13.45;53.10
12360;BME280;6244;51.460;7.090;2023-04-30T20:59:55;100952.22;;;13.36;53.43
12360;BME280;6244;51.460;7.090;2023-04-30T21:04:52;100950.41;;;13.37;53.58
12360;BME280;6244;51.460;7.090;2023-04-30T21:09:49;100947.78;;;13.37;53.52
12360;BME280;6244;51.460;7.090;2023-04-30T21:14:47;100944.81;;;13.43;53.47
12360;BME280;6244;51.460;7.090;2023-04-30T21:19:47;100952.72;;;13.43;53.52
12360;BME280;6244;51.460;7.090;2023-04-30T21:24:44;100941.47;;;13.39;53.96
12360;BME280;6244;51.460;7.090;2023-04-30T21:29:41;100934.97;;;13.31;54.13
12360;BME280;6244;51.460;7.090;2023-04-30T21:34:40;100930.22;;;13.21;54.20
12360;BME280;6244;51.460;7.090;2023-04-30T21:39:37;100927.59;;;13.21;54.12
12360;BME280;6244;51.460;7.090;2023-04-30T21:44:33;100924.50;;;13.13;54.44
12360;BME280;6244;51.460;7.090;2023-04-30T21:49:30;100916.69;;;13.12;54.41
12360;BME280;6244;51.460;7.090;2023-04-30T21:54:29;100908.78;;;13.12;53.97
12360;BME280;6244;51.460;7.090;2023-04-30T21:59:26;100912.47;;;13.09;54.41
12360;BME280;6244;51.460;7.090;2023-04-30T22:04:23;100902.19;;;13.05;54.52
12360;BME280;6244;51.460;7.090;2023-04-30T22:09:20;100896.22;;;13.01;54.96
12360;BME280;6244;51.460;7.090;2023-04-30T22:14:20;100886.81;;;12.97;55.07
12360;BME280;6244;51.460;7.090;2023-04-30T22:19:17;100887.19;;;12.91;55.23
12360;BME280;6244;51.460;7.090;2023-04-30T22:24:13;100883.19;;;12.84;55.34
12360;BME280;6244;51.460;7.090;2023-04-30T22:29:10;100872.75;;;12.82;55.60
12360;BME280;6244;51.460;7.090;2023-04-30T22:34:11;100866.81;;;12.79;55.72
12360;BME280;6244;51.460;7.090;2023-04-30T22:39:09;100863.25;;;12.80;55.75
12360;BME280;6244;51.460;7.090;2023-04-30T22:44:06;100855.66;;;12.74;56.12
12360;BME280;6244;51.460;7.090;2023-04-30T22:49:03;100856.03;;;12.68;56.22
12360;BME280;6244;51.460;7.090;2023-04-30T22:54:01;100854.25;;;12.68;56.18
12360;BME280;6244;51.460;7.090;2023-04-30T22:58:57;100857.22;;;12.62;56.12
12360;BME280;6244;51.460;7.090;2023-04-30T23:03:54;100852.13;;;12.59;56.11
12360;BME280;6244;51.460;7.090;2023-04-30T23:08:50;100846.84;;;12.59;56.00
12360;BME280;6244;51.460;7.090;2023-04-30T23:13:48;100843.56;;;12.55;55.98
12360;BME280;6244;51.460;7.090;2023-04-30T23:18:46;100843.66;;;12.54;55.88
12360;BME280;6244;51.460;7.090;2023-04-30T23:23:43;100843.72;;;12.52;55.89
12360;BME280;6244;51.460;7.090;2023-04-30T23:28:39;100843.97;;;12.48;56.22
12360;BME280;6244;51.460;7.090;2023-04-30T23:33:37;100837.38;;;12.41;56.16
12360;BME280;6244;51.460;7.090;2023-04-30T23:38:34;100828.69;;;12.39;56.27
12360;BME280;6244;51.460;7.090;2023-04-30T23:43:35;100826.91;;;12.39;56.63
12360;BME280;6244;51.460;7.090;2023-04-30T23:48:32;100824.06;;;12.28;56.69
12360;BME280;6244;51.460;7.090;2023-04-30T23:53:30;100808.59;;;12.22;56.75
12360;BME280;6244;51.460;7.090;2023-04-30T23:58:28;100802.47;;;12.21;56.52
